Detall de PIREP

Printer-friendly versionPDF version

[2012/01/27 17:10:00]
Flight IATA:CT1004
Pilot Number:037
Company ICAO:CAT
Aircraft Type:B752/E
PAX:27
Departing Airport: LEAL
Destination Airport: LERS
Alternate Airport:LEPA
Online: VATSIM
Route:MITOS N609 MATEX R60 AMPOL
Flight Level:F200
No Slew and time accel
No pause
Crash detect
Detect pilot in Cockpit between each 30 and 45 minutes
17:10 Zero fuel Weight: 150791 Lbs, Fuel Weight: 17764 Lbs
17:10 VATSIM:LEAL 271700Z 34004KT 310V030 9999 FEW020 13/08 Q1019 NOSIG
17:10 VATSIM:LERS 271700Z 00000KT 7000 -RA SCT025 BKN050 10/09 Q1022
17:18 Parking Brakes off
17:23 Take-off
17:23 Take off Weight: 167554 Lbs
17:23 Wind: 344º @ 005 Knots Heading: 098º
17:23 POS N38º 16´ 55´´ W000º 33´ 23´´
17:23 Gear Up: 189 Knots
17:23 Flaps:3 at 190 Knots
17:23 Flaps:2 at 194 Knots
17:23 Flaps:1 at 207 Knots
17:24 Flaps:0 at 205 Knots
17:32 TOC
17:32 Fuel Weight: 14449 Lb
17:38 Wind:057º@035 Knots Heading: 004º Ground Speed: 413 Knots Altitude 20223 ft
17:45 TOD
17:45 Fuel Weight: 12419 Lb
17:53 Wind:004º@006 Knots Heading: 048º Ground Speed: 260 Knots Altitude 6003 ft
18:03 Flaps:1 at 201 Knots
18:04 Flaps:2 at 190 Knots
18:05 Flaps:3 at 180 Knots
18:05 Gear Down: 179 Knots
18:05 Flaps:4 at 184 Knots
18:05 Flaps:5 at 180 Knots
18:06 Gear Up: 169 Knots
18:06 Flaps:4 at 161 Knots
18:06 Flaps:3 at 160 Knots
18:07 Flaps:2 at 184 Knots
18:08 Wind:333º@003 Knots Heading: 101º Ground Speed: 191 Knots Altitude 2437 ft
18:08 Flaps:1 at 190 Knots
18:12 Flaps:0 at 200 Knots
18:12 Flaps:1 at 200 Knots
18:14 Flaps:2 at 187 Knots
18:15 Gear Down: 173 Knots
18:16 Flaps:3 at 161 Knots
18:17 Flaps:4 at 141 Knots
18:19 TouchDown:Rate -234 ft/min Speed: 132 Knots
18:19 VATSIM:LERS 271800Z VRB02KT 7000 SCT025 SCT050 10/08 Q1022 RERA
18:19 Land
18:19 Wind:052º@003 Knots
18:19 Heading: 067º
18:19 Flight Duration: 00:56
18:19 Landing Weight: 160000 Lbs
18:19 POS N41º 08´ 59´´ E001º 10´ 31´´
18:23 Parking brakes on
18:23 Block to Block Duration: 01:05
18:23 Final Fuel: 8648 Lbls
18:23 Spent Fuel: 9115 Lbls
18:23 Flight Length: 202 NM
18:23 TOD Land Length: 71 NM

Exportar CSV

Powered by Drupal - Modified by Danger4k